sensor_id;sensor_type;location;lat;lon;timestamp;pressure;altitude;pressure_sealevel;temperature;humidity
49194;BME280;35029;50.804;12.866;2023-05-23T00:02:08;97351.50;;;16.71;100.00
49194;BME280;35029;50.804;12.866;2023-05-23T00:04:34;97359.34;;;16.78;100.00
49194;BME280;35029;50.804;12.866;2023-05-23T00:07:02;97363.56;;;16.74;100.00
49194;BME280;35029;50.804;12.866;2023-05-23T00:09:28;97325.00;;;16.53;100.00
49194;BME280;35029;50.804;12.866;2023-05-23T00:11:53;97351.97;;;16.68;100.00
49194;BME280;35029;50.804;12.866;2023-05-23T00:14:19;97362.28;;;16.60;100.00
49194;BME280;35029;50.804;12.866;2023-05-23T00:16:45;97350.69;;;16.54;100.00
49194;BME280;35029;50.804;12.866;2023-05-23T00:19:14;97345.66;;;16.58;100.00
49194;BME280;35029;50.804;12.866;2023-05-23T00:21:44;97310.16;;;16.45;100.00
49194;BME280;35029;50.804;12.866;2023-05-23T00:24:12;97318.72;;;16.64;100.00
49194;BME280;35029;50.804;12.866;2023-05-23T00:26:38;97330.72;;;16.79;100.00
49194;BME280;35029;50.804;12.866;2023-05-23T00:29:04;97333.69;;;16.82;100.00
49194;BME280;35029;50.804;12.866;2023-05-23T00:31:30;97343.28;;;16.78;100.00
49194;BME280;35029;50.804;12.866;2023-05-23T00:33:55;97350.91;;;16.69;100.00
49194;BME280;35029;50.804;12.866;2023-05-23T00:36:21;97344.78;;;16.69;100.00
49194;BME280;35029;50.804;12.866;2023-05-23T00:38:47;97350.28;;;16.62;100.00
49194;BME280;35029;50.804;12.866;2023-05-23T00:41:14;97348.31;;;16.58;100.00
49194;BME280;35029;50.804;12.866;2023-05-23T00:43:39;97330.00;;;16.49;100.00
49194;BME280;35029;50.804;12.866;2023-05-23T00:46:05;97341.00;;;16.70;100.00
49194;BME280;35029;50.804;12.866;2023-05-23T00:48:31;97333.56;;;16.72;100.00
49194;BME280;35029;50.804;12.866;2023-05-23T00:50:57;97320.44;;;16.70;100.00
49194;BME280;35029;50.804;12.866;2023-05-23T00:53:23;97331.72;;;16.55;100.00
49194;BME280;35029;50.804;12.866;2023-05-23T00:55:49;97331.81;;;16.61;100.00
49194;BME280;35029;50.804;12.866;2023-05-23T00:58:16;97332.59;;;16.61;100.00
49194;BME280;35029;50.804;12.866;2023-05-23T01:00:42;97335.38;;;16.66;100.00
49194;BME280;35029;50.804;12.866;2023-05-23T01:03:10;97338.38;;;16.53;100.00
49194;BME280;35029;50.804;12.866;2023-05-23T01:05:43;97333.91;;;16.59;100.00
49194;BME280;35029;50.804;12.866;2023-05-23T01:08:09;97301.00;;;16.41;100.00
49194;BME280;35029;50.804;12.866;2023-05-23T01:10:34;97303.34;;;16.54;100.00
49194;BME280;35029;50.804;12.866;2023-05-23T01:15:48;97308.72;;;16.77;100.00
49194;BME280;35029;50.804;12.866;2023-05-23T01:18:18;97308.72;;;16.77;100.00
49194;BME280;35029;50.804;12.866;2023-05-23T01:20:52;97307.22;;;16.64;100.00
49194;BME280;35029;50.804;12.866;2023-05-23T01:26:02;97309.34;;;16.45;100.00
49194;BME280;35029;50.804;12.866;2023-05-23T01:29:00;97320.59;;;16.47;100.00
49194;BME280;35029;50.804;12.866;2023-05-23T01:31:31;97304.78;;;16.45;100.00
49194;BME280;35029;50.804;12.866;2023-05-23T01:33:59;97308.75;;;16.43;100.00
49194;BME280;35029;50.804;12.866;2023-05-23T01:36:25;97318.41;;;16.44;100.00
49194;BME280;35029;50.804;12.866;2023-05-23T01:38:51;97305.47;;;16.52;100.00
49194;BME280;35029;50.804;12.866;2023-05-23T01:41:16;97308.59;;;16.66;100.00
49194;BME280;35029;50.804;12.866;2023-05-23T01:43:42;97287.28;;;16.71;100.00
49194;BME280;35029;50.804;12.866;2023-05-23T01:46:08;97282.41;;;16.68;100.00
49194;BME280;35029;50.804;12.866;2023-05-23T01:48:35;97276.56;;;16.71;100.00
49194;BME280;35029;50.804;12.866;2023-05-23T01:51:03;97256.69;;;16.67;100.00
49194;BME280;35029;50.804;12.866;2023-05-23T01:53:29;97264.78;;;16.72;100.00
49194;BME280;35029;50.804;12.866;2023-05-23T01:55:56;97272.34;;;16.76;100.00
49194;BME280;35029;50.804;12.866;2023-05-23T01:58:22;97256.56;;;16.57;100.00
49194;BME280;35029;50.804;12.866;2023-05-23T02:00:48;97257.09;;;16.76;100.00
49194;BME280;35029;50.804;12.866;2023-05-23T02:03:14;97255.97;;;16.72;100.00
49194;BME280;35029;50.804;12.866;2023-05-23T02:05:41;97243.00;;;16.64;100.00
49194;BME280;35029;50.804;12.866;2023-05-23T02:08:07;97247.94;;;16.72;100.00
49194;BME280;35029;50.804;12.866;2023-05-23T02:10:32;97245.19;;;16.67;100.00
49194;BME280;35029;50.804;12.866;2023-05-23T02:12:59;97238.88;;;16.56;100.00
49194;BME280;35029;50.804;12.866;2023-05-23T02:15:26;97238.16;;;16.61;100.00
49194;BME280;35029;50.804;12.866;2023-05-23T02:17:52;97234.34;;;16.56;100.00
49194;BME280;35029;50.804;12.866;2023-05-23T02:20:17;97232.28;;;16.42;100.00
49194;BME280;35029;50.804;12.866;2023-05-23T02:22:43;97241.34;;;16.41;100.00
49194;BME280;35029;50.804;12.866;2023-05-23T02:25:09;97244.44;;;16.32;100.00
49194;BME280;35029;50.804;12.866;2023-05-23T02:27:34;97255.38;;;16.31;100.00
49194;BME280;35029;50.804;12.866;2023-05-23T02:30:00;97252.03;;;16.23;100.00
49194;BME280;35029;50.804;12.866;2023-05-23T02:32:26;97206.69;;;15.95;100.00
49194;BME280;35029;50.804;12.866;2023-05-23T02:34:54;97255.53;;;16.24;100.00
49194;BME280;35029;50.804;12.866;2023-05-23T02:37:20;97233.47;;;16.17;100.00
49194;BME280;35029;50.804;12.866;2023-05-23T02:39:46;97254.47;;;16.25;100.00
49194;BME280;35029;50.804;12.866;2023-05-23T02:42:12;97239.91;;;16.16;100.00
49194;BME280;35029;50.804;12.866;2023-05-23T02:44:38;97224.72;;;16.04;100.00
49194;BME280;35029;50.804;12.866;2023-05-23T02:47:03;97240.16;;;16.14;100.00
49194;BME280;35029;50.804;12.866;2023-05-23T02:49:29;97264.84;;;16.21;100.00
49194;BME280;35029;50.804;12.866;2023-05-23T02:51:55;97235.50;;;16.10;100.00
49194;BME280;35029;50.804;12.866;2023-05-23T02:54:21;97254.97;;;16.22;100.00
49194;BME280;35029;50.804;12.866;2023-05-23T02:56:46;97264.28;;;16.19;100.00
49194;BME280;35029;50.804;12.866;2023-05-23T02:59:12;97255.19;;;16.20;100.00
49194;BME280;35029;50.804;12.866;2023-05-23T03:01:38;97251.97;;;16.18;100.00
49194;BME280;35029;50.804;12.866;2023-05-23T03:04:03;97268.19;;;16.12;100.00
49194;BME280;35029;50.804;12.866;2023-05-23T03:06:30;97266.56;;;16.11;100.00
49194;BME280;35029;50.804;12.866;2023-05-23T03:08:59;97248.66;;;15.94;100.00
49194;BME280;35029;50.804;12.866;2023-05-23T03:11:25;97271.91;;;16.11;100.00
49194;BME280;35029;50.804;12.866;2023-05-23T03:13:50;97237.94;;;15.94;100.00
49194;BME280;35029;50.804;12.866;2023-05-23T03:16:16;97266.06;;;16.14;100.00
49194;BME280;35029;50.804;12.866;2023-05-23T03:18:42;97244.53;;;16.03;100.00
49194;BME280;35029;50.804;12.866;2023-05-23T03:21:07;97254.66;;;16.18;100.00
49194;BME280;35029;50.804;12.866;2023-05-23T03:23:34;97261.28;;;16.16;100.00
49194;BME280;35029;50.804;12.866;2023-05-23T03:26:02;97239.00;;;15.93;100.00
49194;BME280;35029;50.804;12.866;2023-05-23T03:28:29;97269.47;;;16.09;100.00
49194;BME280;35029;50.804;12.866;2023-05-23T03:30:55;97274.25;;;16.07;100.00
49194;BME280;35029;50.804;12.866;2023-05-23T03:33:20;97267.94;;;16.13;100.00
49194;BME280;35029;50.804;12.866;2023-05-23T03:35:46;97273.28;;;16.13;100.00
49194;BME280;35029;50.804;12.866;2023-05-23T03:38:12;97262.75;;;16.07;100.00
49194;BME280;35029;50.804;12.866;2023-05-23T03:40:37;97276.50;;;16.15;100.00
49194;BME280;35029;50.804;12.866;2023-05-23T03:43:06;97267.09;;;16.13;100.00
49194;BME280;35029;50.804;12.866;2023-05-23T03:45:35;97291.50;;;16.16;100.00
49194;BME280;35029;50.804;12.866;2023-05-23T03:48:04;97300.16;;;16.07;100.00
49194;BME280;35029;50.804;12.866;2023-05-23T03:50:30;97303.81;;;16.17;100.00
49194;BME280;35029;50.804;12.866;2023-05-23T03:52:55;97301.47;;;16.21;100.00
49194;BME280;35029;50.804;12.866;2023-05-23T03:55:22;97285.66;;;16.02;100.00
49194;BME280;35029;50.804;12.866;2023-05-23T03:57:49;97272.78;;;15.99;100.00
49194;BME280;35029;50.804;12.866;2023-05-23T04:00:19;97306.81;;;16.21;100.00
49194;BME280;35029;50.804;12.866;2023-05-23T04:02:48;97308.44;;;16.22;100.00
49194;BME280;35029;50.804;12.866;2023-05-23T04:05:17;97293.28;;;16.11;100.00
49194;BME280;35029;50.804;12.866;2023-05-23T04:07:44;97307.72;;;16.27;100.00
49194;BME280;35029;50.804;12.866;2023-05-23T04:10:10;97310.72;;;16.30;100.00
49194;BME280;35029;50.804;12.866;2023-05-23T04:12:36;97309.28;;;16.22;100.00
49194;BME280;35029;50.804;12.866;2023-05-23T04:15:07;97318.09;;;16.23;100.00
49194;BME280;35029;50.804;12.866;2023-05-23T04:17:36;97320.13;;;16.33;100.00
49194;BME280;35029;50.804;12.866;2023-05-23T04:20:07;97287.69;;;16.12;100.00
49194;BME280;35029;50.804;12.866;2023-05-23T04:22:34;97321.25;;;16.37;100.00
49194;BME280;35029;50.804;12.866;2023-05-23T04:25:01;97304.72;;;16.23;100.00
49194;BME280;35029;50.804;12.866;2023-05-23T04:27:31;97326.09;;;16.40;100.00
49194;BME280;35029;50.804;12.866;2023-05-23T04:29:56;97335.09;;;16.51;100.00
49194;BME280;35029;50.804;12.866;2023-05-23T04:32:23;97336.66;;;16.47;100.00
49194;BME280;35029;50.804;12.866;2023-05-23T04:34:49;97340.06;;;16.42;100.00
49194;BME280;35029;50.804;12.866;2023-05-23T04:37:15;97335.59;;;16.48;100.00
49194;BME280;35029;50.804;12.866;2023-05-23T04:39:41;97328.97;;;16.50;100.00
49194;BME280;35029;50.804;12.866;2023-05-23T04:42:25;97335.59;;;16.65;100.00
49194;BME280;35029;50.804;12.866;2023-05-23T04:45:01;97330.47;;;16.63;100.00
49194;BME280;35029;50.804;12.866;2023-05-23T04:47:53;97333.81;;;16.70;100.00
49194;BME280;35029;50.804;12.866;2023-05-23T04:50:34;97335.25;;;16.78;100.00
49194;BME280;35029;50.804;12.866;2023-05-23T04:53:02;97343.84;;;16.80;100.00
49194;BME280;35029;50.804;12.866;2023-05-23T04:55:28;97342.56;;;16.83;100.00
49194;BME280;35029;50.804;12.866;2023-05-23T04:57:53;97343.06;;;16.80;100.00
49194;BME280;35029;50.804;12.866;2023-05-23T05:00:19;97350.19;;;16.74;100.00
49194;BME280;35029;50.804;12.866;2023-05-23T05:02:45;97341.69;;;16.77;100.00
49194;BME280;35029;50.804;12.866;2023-05-23T05:05:12;97334.22;;;16.62;100.00
49194;BME280;35029;50.804;12.866;2023-05-23T05:07:37;97342.66;;;16.71;100.00
49194;BME280;35029;50.804;12.866;2023-05-23T05:10:05;97340.13;;;16.64;100.00
49194;BME280;35029;50.804;12.866;2023-05-23T05:12:32;97336.50;;;16.70;100.00
49194;BME280;35029;50.804;12.866;2023-05-23T05:14:59;97337.78;;;16.68;100.00
49194;BME280;35029;50.804;12.866;2023-05-23T05:17:25;97352.63;;;16.76;100.00
49194;BME280;35029;50.804;12.866;2023-05-23T05:20:01;97345.25;;;16.83;100.00
49194;BME280;35029;50.804;12.866;2023-05-23T05:22:30;97346.88;;;16.84;100.00
49194;BME280;35029;50.804;12.866;2023-05-23T05:24:55;97346.94;;;16.89;100.00
49194;BME280;35029;50.804;12.866;2023-05-23T05:27:21;97349.97;;;17.15;100.00
49194;BME280;35029;50.804;12.866;2023-05-23T05:29:47;97349.72;;;17.16;100.00
49194;BME280;35029;50.804;12.866;2023-05-23T05:32:14;97355.75;;;17.23;100.00
49194;BME280;35029;50.804;12.866;2023-05-23T05:34:39;97358.28;;;17.13;100.00
49194;BME280;35029;50.804;12.866;2023-05-23T05:37:08;97364.25;;;17.20;100.00
49194;BME280;35029;50.804;12.866;2023-05-23T05:39:33;97344.56;;;17.10;100.00
49194;BME280;35029;50.804;12.866;2023-05-23T05:41:59;97354.22;;;17.11;100.00
49194;BME280;35029;50.804;12.866;2023-05-23T05:44:27;97364.69;;;17.12;100.00
49194;BME280;35029;50.804;12.866;2023-05-23T05:46:53;97365.00;;;17.16;100.00
49194;BME280;35029;50.804;12.866;2023-05-23T05:49:19;97367.06;;;17.09;100.00
49194;BME280;35029;50.804;12.866;2023-05-23T05:51:45;97358.69;;;17.05;100.00
49194;BME280;35029;50.804;12.866;2023-05-23T05:54:11;97377.69;;;17.03;100.00
49194;BME280;35029;50.804;12.866;2023-05-23T05:56:37;97362.50;;;16.75;100.00
49194;BME280;35029;50.804;12.866;2023-05-23T05:59:03;97382.97;;;16.81;100.00
49194;BME280;35029;50.804;12.866;2023-05-23T06:01:30;97377.78;;;16.75;100.00
49194;BME280;35029;50.804;12.866;2023-05-23T06:03:55;97388.72;;;16.90;100.00
49194;BME280;35029;50.804;12.866;2023-05-23T06:06:22;97373.72;;;16.89;100.00
49194;BME280;35029;50.804;12.866;2023-05-23T06:08:48;97378.16;;;16.83;100.00
49194;BME280;35029;50.804;12.866;2023-05-23T06:11:15;97392.94;;;16.86;100.00
49194;BME280;35029;50.804;12.866;2023-05-23T06:13:41;97385.47;;;16.88;100.00
49194;BME280;35029;50.804;12.866;2023-05-23T06:16:07;97378.66;;;16.97;100.00
49194;BME280;35029;50.804;12.866;2023-05-23T06:18:32;97393.38;;;16.95;100.00
49194;BME280;35029;50.804;12.866;2023-05-23T06:20:58;97391.41;;;16.90;100.00
49194;BME280;35029;50.804;12.866;2023-05-23T06:23:25;97396.00;;;16.78;100.00
49194;BME280;35029;50.804;12.866;2023-05-23T06:25:50;97378.31;;;16.77;100.00
49194;BME280;35029;50.804;12.866;2023-05-23T06:28:16;97393.09;;;16.79;100.00
49194;BME280;35029;50.804;12.866;2023-05-23T06:30:44;97396.59;;;16.80;100.00
49194;BME280;35029;50.804;12.866;2023-05-23T06:33:09;97381.81;;;16.77;100.00
49194;BME280;35029;50.804;12.866;2023-05-23T06:35:36;97397.81;;;16.89;100.00
49194;BME280;35029;50.804;12.866;2023-05-23T06:38:03;97384.97;;;16.74;100.00
49194;BME280;35029;50.804;12.866;2023-05-23T06:40:29;97395.84;;;16.84;100.00
49194;BME280;35029;50.804;12.866;2023-05-23T06:42:54;97399.81;;;16.82;100.00
49194;BME280;35029;50.804;12.866;2023-05-23T06:45:37;97400.72;;;16.87;100.00
49194;BME280;35029;50.804;12.866;2023-05-23T06:48:03;97377.59;;;16.81;100.00
49194;BME280;35029;50.804;12.866;2023-05-23T06:50:30;97394.16;;;16.95;100.00
49194;BME280;35029;50.804;12.866;2023-05-23T06:52:56;97402.19;;;16.95;100.00
49194;BME280;35029;50.804;12.866;2023-05-23T06:55:22;97375.34;;;16.73;100.00
49194;BME280;35029;50.804;12.866;2023-05-23T06:57:48;97401.31;;;16.89;100.00
49194;BME280;35029;50.804;12.866;2023-05-23T07:00:18;97401.31;;;16.89;100.00
49194;BME280;35029;50.804;12.866;2023-05-23T07:03:13;97400.16;;;16.85;100.00
49194;BME280;35029;50.804;12.866;2023-05-23T07:05:39;97386.75;;;16.68;100.00
49194;BME280;35029;50.804;12.866;2023-05-23T07:08:05;97405.19;;;16.82;100.00
49194;BME280;35029;50.804;12.866;2023-05-23T07:10:31;97386.91;;;16.62;100.00
49194;BME280;35029;50.804;12.866;2023-05-23T07:13:06;97406.63;;;16.72;100.00
49194;BME280;35029;50.804;12.866;2023-05-23T07:15:32;97400.06;;;16.63;100.00
49194;BME280;35029;50.804;12.866;2023-05-23T07:18:08;97409.72;;;16.64;100.00
49194;BME280;35029;50.804;12.866;2023-05-23T07:20:34;97404.34;;;16.64;100.00
49194;BME280;35029;50.804;12.866;2023-05-23T07:23:09;97410.69;;;16.58;100.00
49194;BME280;35029;50.804;12.866;2023-05-23T07:25:35;97412.63;;;16.63;100.00
49194;BME280;35029;50.804;12.866;2023-05-23T07:28:03;97406.94;;;16.59;100.00
49194;BME280;35029;50.804;12.866;2023-05-23T07:30:28;97410.84;;;16.68;100.00
49194;BME280;35029;50.804;12.866;2023-05-23T07:32:54;97410.75;;;16.63;100.00
49194;BME280;35029;50.804;12.866;2023-05-23T07:35:21;97417.19;;;16.62;100.00
49194;BME280;35029;50.804;12.866;2023-05-23T07:37:51;97412.06;;;16.61;100.00
49194;BME280;35029;50.804;12.866;2023-05-23T07:40:18;97414.75;;;16.61;100.00
49194;BME280;35029;50.804;12.866;2023-05-23T07:42:43;97415.16;;;16.52;100.00
49194;BME280;35029;50.804;12.866;2023-05-23T07:45:10;97415.16;;;16.52;100.00
49194;BME280;35029;50.804;12.866;2023-05-23T07:47:39;97408.97;;;16.52;100.00
49194;BME280;35029;50.804;12.866;2023-05-23T07:50:05;97407.84;;;16.48;100.00
49194;BME280;35029;50.804;12.866;2023-05-23T07:52:31;97410.69;;;16.58;100.00
49194;BME280;35029;50.804;12.866;2023-05-23T07:54:58;97429.50;;;16.63;100.00
49194;BME280;35029;50.804;12.866;2023-05-23T07:57:26;97408.66;;;16.65;100.00
49194;BME280;35029;50.804;12.866;2023-05-23T07:59:52;97423.56;;;16.78;100.00
49194;BME280;35029;50.804;12.866;2023-05-23T08:02:18;97422.69;;;16.72;100.00
49194;BME280;35029;50.804;12.866;2023-05-23T08:04:45;97420.59;;;16.75;100.00
49194;BME280;35029;50.804;12.866;2023-05-23T08:07:11;97432.16;;;16.92;100.00
49194;BME280;35029;50.804;12.866;2023-05-23T08:09:46;97421.06;;;16.88;100.00
49194;BME280;35029;50.804;12.866;2023-05-23T08:12:14;97430.31;;;16.81;100.00
49194;BME280;35029;50.804;12.866;2023-05-23T08:14:41;97432.19;;;16.80;100.00
49194;BME280;35029;50.804;12.866;2023-05-23T08:17:20;97430.72;;;16.72;100.00
49194;BME280;35029;50.804;12.866;2023-05-23T08:19:46;97443.28;;;16.72;100.00
49194;BME280;35029;50.804;12.866;2023-05-23T08:22:12;97420.56;;;16.58;100.00
49194;BME280;35029;50.804;12.866;2023-05-23T08:24:37;97431.94;;;16.65;100.00
49194;BME280;35029;50.804;12.866;2023-05-23T08:27:03;97446.19;;;16.53;100.00
49194;BME280;35029;50.804;12.866;2023-05-23T08:29:30;97449.00;;;16.47;100.00
49194;BME280;35029;50.804;12.866;2023-05-23T08:31:55;97451.44;;;16.48;100.00
49194;BME280;35029;50.804;12.866;2023-05-23T08:34:21;97450.38;;;16.49;100.00
49194;BME280;35029;50.804;12.866;2023-05-23T08:36:47;97455.09;;;16.42;100.00
49194;BME280;35029;50.804;12.866;2023-05-23T08:39:17;97449.88;;;16.35;100.00
49194;BME280;35029;50.804;12.866;2023-05-23T08:41:50;97430.78;;;16.15;100.00
49194;BME280;35029;50.804;12.866;2023-05-23T08:44:15;97440.69;;;16.14;100.00
49194;BME280;35029;50.804;12.866;2023-05-23T08:46:47;97467.59;;;16.25;100.00
49194;BME280;35029;50.804;12.866;2023-05-23T08:49:40;97459.91;;;15.99;100.00
49194;BME280;35029;50.804;12.866;2023-05-23T08:52:11;97469.28;;;16.02;100.00
49194;BME280;35029;50.804;12.866;2023-05-23T08:54:38;97482.59;;;15.97;100.00
49194;BME280;35029;50.804;12.866;2023-05-23T08:57:05;97475.88;;;15.82;100.00
49194;BME280;35029;50.804;12.866;2023-05-23T08:59:38;97477.84;;;15.87;100.00
49194;BME280;35029;50.804;12.866;2023-05-23T09:02:07;97478.38;;;16.01;100.00
49194;BME280;35029;50.804;12.866;2023-05-23T09:04:35;97477.84;;;15.87;100.00
49194;BME280;35029;50.804;12.866;2023-05-23T09:07:08;97483.19;;;15.87;100.00
49194;BME280;35029;50.804;12.866;2023-05-23T09:09:34;97465.63;;;15.79;100.00
49194;BME280;35029;50.804;12.866;2023-05-23T09:12:03;97489.31;;;15.99;100.00
49194;BME280;35029;50.804;12.866;2023-05-23T09:14:31;97488.38;;;15.94;100.00
49194;BME280;35029;50.804;12.866;2023-05-23T09:17:00;97497.91;;;16.01;100.00
49194;BME280;35029;50.804;12.866;2023-05-23T09:19:27;97487.56;;;16.05;100.00
49194;BME280;35029;50.804;12.866;2023-05-23T09:22:01;97493.16;;;16.03;100.00
49194;BME280;35029;50.804;12.866;2023-05-23T09:24:36;97474.22;;;15.81;100.00
49194;BME280;35029;50.804;12.866;2023-05-23T09:27:05;97494.19;;;16.02;100.00
49194;BME280;35029;50.804;12.866;2023-05-23T09:29:37;97498.03;;;15.95;100.00
49194;BME280;35029;50.804;12.866;2023-05-23T09:32:16;97479.94;;;15.85;100.00
49194;BME280;35029;50.804;12.866;2023-05-23T09:35:03;97503.13;;;15.96;100.00
49194;BME280;35029;50.804;12.866;2023-05-23T09:37:38;97509.38;;;16.14;100.00
49194;BME280;35029;50.804;12.866;2023-05-23T09:40:09;97489.25;;;16.23;100.00
49194;BME280;35029;50.804;12.866;2023-05-23T09:42:40;97486.84;;;16.38;100.00
49194;BME280;35029;50.804;12.866;2023-05-23T09:45:06;97487.47;;;16.58;100.00
49194;BME280;35029;50.804;12.866;2023-05-23T09:47:32;97499.97;;;16.98;100.00
49194;BME280;35029;50.804;12.866;2023-05-23T09:49:58;97495.50;;;17.03;100.00
49194;BME280;35029;50.804;12.866;2023-05-23T09:52:23;97510.75;;;17.20;98.92
49194;BME280;35029;50.804;12.866;2023-05-23T09:54:49;97498.50;;;17.24;97.17
49194;BME280;35029;50.804;12.866;2023-05-23T09:57:15;97493.88;;;17.36;98.32
49194;BME280;35029;50.804;12.866;2023-05-23T09:59:53;97503.91;;;17.46;100.00
49194;BME280;35029;50.804;12.866;2023-05-23T10:05:29;97461.81;;;16.90;97.48
49194;BME280;35029;50.804;12.866;2023-05-23T10:07:58;97486.81;;;16.96;98.64
49194;BME280;35029;50.804;12.866;2023-05-23T10:10:28;97502.03;;;16.79;99.93
49194;BME280;35029;50.804;12.866;2023-05-23T10:12:57;97500.78;;;16.52;100.00
49194;BME280;35029;50.804;12.866;2023-05-23T10:15:26;97503.91;;;16.49;100.00
49194;BME280;35029;50.804;12.866;2023-05-23T10:18:17;97502.06;;;16.50;100.00
49194;BME280;35029;50.804;12.866;2023-05-23T10:20:51;97490.41;;;16.44;100.00
49194;BME280;35029;50.804;12.866;2023-05-23T10:23:18;97456.00;;;16.19;98.55
49194;BME280;35029;50.804;12.866;2023-05-23T10:25:44;97513.22;;;16.47;98.15
49194;BME280;35029;50.804;12.866;2023-05-23T10:28:12;97518.44;;;16.53;95.52
49194;BME280;35029;50.804;12.866;2023-05-23T10:30:38;97516.63;;;16.42;93.60
49194;BME280;35029;50.804;12.866;2023-05-23T10:33:05;97513.66;;;16.55;95.06
49194;BME280;35029;50.804;12.866;2023-05-23T10:38:19;97514.38;;;16.80;92.81
49194;BME280;35029;50.804;12.866;2023-05-23T10:43:48;97522.78;;;17.34;90.53
49194;BME280;35029;50.804;12.866;2023-05-23T10:46:19;97506.22;;;17.37;87.88
49194;BME280;35029;50.804;12.866;2023-05-23T10:48:45;97513.44;;;17.37;86.53
49194;BME280;35029;50.804;12.866;2023-05-23T10:51:13;97496.31;;;17.04;88.01
49194;BME280;35029;50.804;12.866;2023-05-23T10:53:40;97512.78;;;17.13;89.62
49194;BME280;35029;50.804;12.866;2023-05-23T10:56:08;97517.66;;;17.16;90.91
49194;BME280;35029;50.804;12.866;2023-05-23T10:58:36;97499.97;;;17.15;91.99
49194;BME280;35029;50.804;12.866;2023-05-23T11:01:07;97510.44;;;17.16;88.71
49194;BME280;35029;50.804;12.866;2023-05-23T11:06:03;97517.66;;;17.50;90.07
49194;BME280;35029;50.804;12.866;2023-05-23T11:08:39;97511.41;;;17.44;84.68
49194;BME280;35029;50.804;12.866;2023-05-23T11:11:07;97503.56;;;17.77;85.98
49194;BME280;35029;50.804;12.866;2023-05-23T11:16:40;97519.41;;;17.61;83.87
49194;BME280;35029;50.804;12.866;2023-05-23T11:22:02;97538.00;;;17.00;82.62
49194;BME280;35029;50.804;12.866;2023-05-23T11:24:49;97530.72;;;16.95;86.71
49194;BME280;35029;50.804;12.866;2023-05-23T11:27:16;97523.69;;;16.77;85.87
49194;BME280;35029;50.804;12.866;2023-05-23T11:29:54;97535.19;;;16.78;85.05
49194;BME280;35029;50.804;12.866;2023-05-23T11:32:20;97529.75;;;16.72;86.36
49194;BME280;35029;50.804;12.866;2023-05-23T11:34:46;97527.41;;;16.76;87.69
49194;BME280;35029;50.804;12.866;2023-05-23T11:37:11;97527.56;;;16.69;88.52
49194;BME280;35029;50.804;12.866;2023-05-23T11:39:37;97523.00;;;16.70;89.19
49194;BME280;35029;50.804;12.866;2023-05-23T11:42:03;97524.28;;;16.67;87.89
49194;BME280;35029;50.804;12.866;2023-05-23T11:44:29;97528.69;;;16.73;87.05
49194;BME280;35029;50.804;12.866;2023-05-23T11:47:02;97528.69;;;16.73;87.25
49194;BME280;35029;50.804;12.866;2023-05-23T11:49:35;97524.06;;;16.69;89.99
49194;BME280;35029;50.804;12.866;2023-05-23T11:52:05;97528.31;;;16.53;90.18
49194;BME280;35029;50.804;12.866;2023-05-23T11:54:31;97525.25;;;16.32;89.68
49194;BME280;35029;50.804;12.866;2023-05-23T11:56:57;97528.19;;;16.19;90.13
49194;BME280;35029;50.804;12.866;2023-05-23T11:59:25;97510.78;;;16.04;90.91
49194;BME280;35029;50.804;12.866;2023-05-23T12:01:54;97519.97;;;16.09;93.77
49194;BME280;35029;50.804;12.866;2023-05-23T12:04:20;97543.22;;;16.20;91.97
49194;BME280;35029;50.804;12.866;2023-05-23T12:06:47;97534.28;;;16.02;90.92
49194;BME280;35029;50.804;12.866;2023-05-23T12:09:13;97539.50;;;16.09;91.85
49194;BME280;35029;50.804;12.866;2023-05-23T12:11:40;97509.72;;;16.17;93.06
49194;BME280;35029;50.804;12.866;2023-05-23T12:14:07;97539.66;;;16.43;91.04
49194;BME280;35029;50.804;12.866;2023-05-23T12:16:34;97542.88;;;16.45;92.72
49194;BME280;35029;50.804;12.866;2023-05-23T12:19:01;97544.88;;;16.50;93.01
49194;BME280;35029;50.804;12.866;2023-05-23T12:21:47;97537.88;;;16.49;92.41
49194;BME280;35029;50.804;12.866;2023-05-23T12:26:49;97551.00;;;16.50;89.94
49194;BME280;35029;50.804;12.866;2023-05-23T12:29:17;97517.66;;;16.41;91.18
49194;BME280;35029;50.804;12.866;2023-05-23T12:31:43;97525.53;;;16.48;91.65
49194;BME280;35029;50.804;12.866;2023-05-23T12:34:10;97543.00;;;16.50;90.30
49194;BME280;35029;50.804;12.866;2023-05-23T12:36:35;97523.41;;;16.21;93.29
49194;BME280;35029;50.804;12.866;2023-05-23T12:39:03;97501.25;;;16.09;92.48
49194;BME280;35029;50.804;12.866;2023-05-23T12:41:31;97524.25;;;16.10;93.95
49194;BME280;35029;50.804;12.866;2023-05-23T12:43:58;97549.34;;;16.32;94.82
49194;BME280;35029;50.804;12.866;2023-05-23T12:46:25;97527.47;;;16.23;96.34
49194;BME280;35029;50.804;12.866;2023-05-23T12:48:51;97550.06;;;16.56;95.33
49194;BME280;35029;50.804;12.866;2023-05-23T12:51:17;97527.97;;;16.49;94.93
49194;BME280;35029;50.804;12.866;2023-05-23T12:53:42;97555.84;;;16.36;94.36
49194;BME280;35029;50.804;12.866;2023-05-23T12:56:08;97547.56;;;16.38;92.70
49194;BME280;35029;50.804;12.866;2023-05-23T12:58:33;97555.00;;;16.36;93.71
49194;BME280;35029;50.804;12.866;2023-05-23T13:01:00;97563.03;;;16.36;94.49
49194;BME280;35029;50.804;12.866;2023-05-23T13:03:27;97557.41;;;16.49;95.35
49194;BME280;35029;50.804;12.866;2023-05-23T13:05:55;97556.50;;;16.44;94.83
49194;BME280;35029;50.804;12.866;2023-05-23T13:08:25;97547.84;;;16.25;96.72
49194;BME280;35029;50.804;12.866;2023-05-23T13:10:55;97544.50;;;16.05;97.51
49194;BME280;35029;50.804;12.866;2023-05-23T13:13:21;97559.63;;;16.12;98.65